Antioch, California
Current Conditions -  °F | °C
As of 1:53 PM on Tuesday 21 Oct 2014 (Local Time) from KCCR Reporting Station
Clear Clear  
Wind Chill: 69°   Ceiling: Unl
Heat Index: 69°   Visibility: 10mi
Dew Point: 39°   Wind: 0mph
Humidity: 33%   Direction: NA
Pressure: 30.04"   Gusts: NA
Location:  38.02°N, 121.81°W
Report Text: KCCR 212053Z 00000KT 10SM CLR 21/04 A3004 RMK AO2 SLP159 T02060039 58024
Loading
Personal Weather Stations






























Interactive Weather Map
Tropical Storm Tracking
New forecast layout! Learn more

10-Day Weather Forecast

Advertisements
Track Severe Weather on mobile